METAR Rapporter från flygplatser

 

ESTA - Ängelholm, Sweden
Distance from station: SSV 17km
Uppdaterad: 2020-06-07 04:50
Enstaka moln
Enstaka moln
 Vind från SSO
Vind: SSO 7 km/h
Temperatur: 5°C
Wind Chill: 3°C
Daggpunkt: 5°C
Luftfuktighet: 100%
Barometer: 1003 hPa
Clouds: Enstaka moln
Visibility: 10 km
Cloud details: Enstaka moln 2804 m
2020/06/07 02:50 ESTA 070250Z AUTO 15004KT 9999 FEW092/// 05/05 Q1003
ESMT - Halmstad, Sweden
Distance from station: N 26km
Uppdaterad: 2020-06-07 04:50
Enstaka moln
Enstaka moln
 Vind från S
Vind: S 17 km/h
Temperatur: 11°C
Daggpunkt: 8°C
Luftfuktighet: 82%
Barometer: 1003 hPa
Clouds: Enstaka moln
Visibility: 10 km
Cloud details: Enstaka moln 2286 m
2020/06/07 02:50 ESMT 070250Z AUTO 19009KT 9999 FEW075/// 11/08 Q1003
 
ESTL - Ljungbyhed, Sweden
Distance from station: SSO 45km
Uppdaterad: 2020-06-07 04:50
Mist, Klart
Mist, Klart
 Vind från O
Vind: O 9 km/h
Temperatur: 5°C
Wind Chill: 3°C
Daggpunkt: 5°C
Luftfuktighet: 100%
Barometer: 1003 hPa
Summering: Mist
Clouds: Klart
Visibility: 7 km
2020/06/07 02:50 ESTL 070250Z AUTO 08005KT 7000 BR NCD 05/05 Q1003
EKCH - Copenhagen/Kastrup, Denmark
Distance from station: S 92km
Uppdaterad: 2020-06-07 04:50
Övervägande molnigt
Övervägande molnigt
 Vind från S
Vind: S 9 km/h
Temperatur: 12°C
Daggpunkt: 9°C
Luftfuktighet: 82%
Barometer: 1003 hPa
Clouds: Övervägande molnigt
Visibility: 10 km
Cloud details: Övervägande molnigt 3048 m
2020/06/07 02:50 EKCH 070250Z AUTO 19005KT 9999 BKN100/// 12/09 Q1003 TEMPO FEW020CB
 
ESMK - Kristianstad/Everöd, Sweden
Distance from station: SO 93km
Uppdaterad: 2020-06-07 04:50
Klart
Klart
 Vind från ONO
Vind: ONO 4 km/h
Temperatur: 5°C
Daggpunkt: 5°C
Luftfuktighet: 100%
Barometer: 1004 hPa
Clouds: Klart
Visibility: 4 km
2020/06/07 02:50 ESMK 070250Z AUTO 07002KT 4300 NCD 05/05 Q1004
ESMS - Malmö/Sturup, Sweden
Distance from station: SSO 104km
Uppdaterad: 2020-06-07 04:20
Klart
Klart
 Vind från SSO
Vind: SSO 7 km/h
Temperatur: 7°C
Wind Chill: 6°C
Daggpunkt: 6°C
Luftfuktighet: 93%
Barometer: 1003 hPa
Summering: Klart
Visibility: greater than 10 km
2020/06/07 02:20 ESMS 070220Z 16004KT CAVOK 07/06 Q1003
 
EKRK - Copenhagen/Roskilde, Denmark
Distance from station: SSV 108km
Uppdaterad: 2020-06-07 04:50
Helmulet
Helmulet
 Vind från SSO
Vind: SSO 9 km/h
Temperatur: 8°C
Wind Chill: 6°C
Daggpunkt: 7°C
Luftfuktighet: 93%
Barometer: 1003 hPa
Clouds: Helmulet
Visibility: 10 km
Cloud details: Helmulet 3018 m
2020/06/07 02:50 EKRK 070250Z AUTO 16005KT 9999 OVC099/// 08/07 Q1003
ESMX - Växjö/Kronoberg, Sweden
Distance from station: ONO 124km
Uppdaterad: 2020-06-07 04:50
Klart
Klart
 Vind från S
Vind: S 9 km/h
Temperatur: 7°C
Wind Chill: 6°C
Daggpunkt: 7°C
Luftfuktighet: 100%
Barometer: 1003 hPa
Clouds: Klart
Visibility: 10 km
2020/06/07 02:50 ESMX 070250Z AUTO 18005KT 9999 NCD 07/07 Q1003
 
EKAH - Tirstrup, Denmark
Distance from station: V 141km
Uppdaterad: 2020-06-07 04:50
Övervägande molnigt
Övervägande molnigt
 Vind från S
Vind: S 7 km/h
Temperatur: 12°C
Daggpunkt: 8°C
Luftfuktighet: 77%
Barometer: 1001 hPa
Clouds: Övervägande molnigt
Visibility: 10 km
Cloud details: Övervägande molnigt 1585 m
2020/06/07 02:50 EKAH 070250Z AUTO 17004KT 110V210 9999NDV BKN052/// 12/08 Q1001
ESGG - Göteborg/Landvetter, Sweden
Distance from station: NNV 142km
Uppdaterad: 2020-06-07 04:50
Helmulet
Helmulet
 Vind från SSV
Vind: SSV 19 km/h
Temperatur: 9°C
Wind Chill: 6°C
Daggpunkt: 6°C
Luftfuktighet: 82%
Barometer: 1000 hPa
Clouds: Helmulet
Visibility: 10 km
Cloud details: Delvis molnigt 701 m
Övervägande molnigt 1189 m
Helmulet 1737 m
2020/06/07 02:50 ESGG 070250Z 20010KT 9999 SCT023 BKN039 OVC057 09/06 Q1000
 
ESDF - Ronneby, Sweden
Distance from station: O 147km
Uppdaterad: 2020-06-07 04:50
Klart
Klart
 Vind från O
Vind: O 4 km/h
Temperatur: 4°C
Daggpunkt: 4°C
Luftfuktighet: 100%
Barometer: 1004 hPa
Clouds: Klart
Visibility: 10 km
2020/06/07 02:50 ESDF 070250Z AUTO 08002KT 9999 NCD 04/04 Q1004
ESGP - Göteborg/Säve, Sweden
Distance from station: NNV 161km
Uppdaterad: 2017-01-02 11:20
NOT Current
Klart
Klart
 Vind från calm
Vind: Vindstilla
Temperatur: -2°C
Daggpunkt: -4°C
Luftfuktighet: 86%
Barometer: 1012 hPa
Clouds: Klart
Visibility: 10 km
2017/01/02 10:20 ESGP 021020Z AUTO 00000KT 9999 NCD M02/M04 Q1012
 
ESGJ - Jönköping Airport, Sweden
Distance from station: NNO 164km
Uppdaterad: 2020-06-07 04:50
Klart
Klart
 Vind från S
Vind: S 13 km/h
Temperatur: 7°C
Wind Chill: 5°C
Daggpunkt: 6°C
Luftfuktighet: 93%
Barometer: 1002 hPa
Clouds: Klart
Visibility: 10 km
2020/06/07 02:50 ESGJ 070250Z AUTO 17007KT 9999 NCD 07/06 Q1002
EKAV - Avno, Denmark
Distance from station: SSV 168km
Uppdaterad: 2016-10-04 06:20
NOT Current
Klart
Klart
 
Barometer: 1039 hPa
Clouds: Klart
Visibility: 10 km
2016/10/04 04:20 EKAV 040420Z AUTO ///// 9999NDV NCD ///// Q1039
 
EKRN - Rönne, Denmark
Distance from station: SO 191km
Uppdaterad: 2020-06-07 04:50
Klart
Klart
 Vind från SSV
Vind: SSV 9 km/h
Temperatur: 12°C
Daggpunkt: 11°C
Luftfuktighet: 94%
Barometer: 1005 hPa
Clouds: Klart
Visibility: 10 km
2020/06/07 02:50 EKRN 070250Z AUTO 21005KT 9999 NCD 12/11 Q1005
EKOD - Odense/Beldringe, Denmark
Distance from station: VSV 193km
Uppdaterad: 2020-06-06 16:50
NOT Current
Delvis molnigt
Delvis molnigt
 Vind från SV
Vind: SV 19 km/h, Vindby: 37 km/h
Temperatur: 15°C
Daggpunkt: 7°C
Luftfuktighet: 59%
Barometer: 998 hPa
Clouds: Delvis molnigt
Visibility: 10 km
Cloud details: Enstaka moln 1006 m
Delvis molnigt 2134 m
2020/06/06 14:50 EKOD 061450Z 23010G20KT 180V280 9999 FEW033 SCT070 15/07 Q0998
 
EKYT - AAlborg, Denmark
Distance from station: VNV 199km
Uppdaterad: 2020-06-07 04:50
Övervägande molnigt
Övervägande molnigt
 Vind från S
Vind: S 13 km/h
Temperatur: 9°C
Wind Chill: 7°C
Daggpunkt: 8°C
Luftfuktighet: 94%
Barometer: 1000 hPa
Clouds: Övervägande molnigt
Visibility: 10 km
Cloud details: Övervägande molnigt 1676 m
2020/06/07 02:50 EKYT 070250Z AUTO 18007KT 9999 BKN055/// 09/08 Q1000
EKSN - Sindal Airport, Denmark
Distance from station: NV 201km
Uppdaterad: 2020-06-04 13:50
NOT Current
Klart
Klart
 Vind från OSO
Vind: OSO 31 km/h
Temperatur: 18°C
Daggpunkt: 5°C
Luftfuktighet: 43%
Barometer: 997 hPa
Summering: Klart
Visibility: greater than 10 km
2020/06/04 11:50 EKSN 041150Z 12017KT CAVOK 18/05 Q0997
 
ESMQ - Kalmar, Sweden
Distance from station: O 211km
Uppdaterad: 2020-06-07 04:50
Klart
Klart
 Vind från S
Vind: S 15 km/h
Temperatur: 7°C
Wind Chill: 4°C
Daggpunkt: 5°C
Luftfuktighet: 87%
Barometer: 1004 hPa
Clouds: Klart
Visibility: 10 km
2020/06/07 02:50 ESMQ 070250Z AUTO 18008KT 9999 NCD 07/05 Q1004
ESGT - Trollhättan, Sweden
Distance from station: N 212km
Uppdaterad: 2020-06-07 04:50
Delvis molnigt
Delvis molnigt
 Vind från SSO
Vind: SSO 19 km/h
Temperatur: 9°C
Wind Chill: 6°C
Daggpunkt: 6°C
Luftfuktighet: 82%
Barometer: 999 hPa
Clouds: Delvis molnigt
Visibility: 10 km
Cloud details: Delvis molnigt 1737 m
2020/06/07 02:50 ESGT 070250Z AUTO 16010KT 9999 SCT057/// 09/06 Q0999